sensor_id;sensor_type;location;lat;lon;timestamp;pressure;altitude;pressure_sealevel;temperature;humidity
20622;BME280;10470;42.670;23.354;2022-10-15T00:00:49;95104.84;;;12.83;100.00
20622;BME280;10470;42.670;23.354;2022-10-15T00:03:14;95100.63;;;12.82;100.00
20622;BME280;10470;42.670;23.354;2022-10-15T00:05:40;95112.63;;;12.84;100.00
20622;BME280;10470;42.670;23.354;2022-10-15T00:08:07;95101.34;;;12.73;100.00
20622;BME280;10470;42.670;23.354;2022-10-15T00:10:34;95101.66;;;12.66;100.00
20622;BME280;10470;42.670;23.354;2022-10-15T00:13:00;95093.28;;;12.79;100.00
20622;BME280;10470;42.670;23.354;2022-10-15T00:15:25;95100.91;;;12.75;100.00
20622;BME280;10470;42.670;23.354;2022-10-15T00:17:51;95096.34;;;12.72;100.00
20622;BME280;10470;42.670;23.354;2022-10-15T00:20:16;95094.81;;;12.71;100.00
20622;BME280;10470;42.670;23.354;2022-10-15T00:22:42;95088.88;;;12.63;100.00
20622;BME280;10470;42.670;23.354;2022-10-15T00:25:08;95090.09;;;12.62;100.00
20622;BME280;10470;42.670;23.354;2022-10-15T00:27:34;95088.59;;;12.70;100.00
20622;BME280;10470;42.670;23.354;2022-10-15T00:30:00;95087.97;;;12.57;100.00
20622;BME280;10470;42.670;23.354;2022-10-15T00:32:28;95081.25;;;12.49;100.00
20622;BME280;10470;42.670;23.354;2022-10-15T00:34:54;95073.50;;;12.38;100.00
20622;BME280;10470;42.670;23.354;2022-10-15T00:37:20;95076.25;;;12.47;100.00
20622;BME280;10470;42.670;23.354;2022-10-15T00:39:46;95072.31;;;12.48;100.00
20622;BME280;10470;42.670;23.354;2022-10-15T00:42:11;95073.66;;;12.43;100.00
20622;BME280;10470;42.670;23.354;2022-10-15T00:44:49;95066.38;;;12.50;100.00
20622;BME280;10470;42.670;23.354;2022-10-15T00:47:29;95068.22;;;12.62;100.00
20622;BME280;10470;42.670;23.354;2022-10-15T00:52:58;95057.44;;;12.58;100.00
20622;BME280;10470;42.670;23.354;2022-10-15T00:55:32;95057.88;;;12.57;100.00
20622;BME280;10470;42.670;23.354;2022-10-15T00:58:03;95049.38;;;12.45;100.00
20622;BME280;10470;42.670;23.354;2022-10-15T01:00:30;95045.28;;;12.59;100.00
20622;BME280;10470;42.670;23.354;2022-10-15T01:02:56;95047.13;;;12.53;100.00
20622;BME280;10470;42.670;23.354;2022-10-15T01:05:22;95058.03;;;12.62;100.00
20622;BME280;10470;42.670;23.354;2022-10-15T01:07:48;95055.63;;;12.64;100.00
20622;BME280;10470;42.670;23.354;2022-10-15T01:10:15;95046.34;;;12.62;100.00
20622;BME280;10470;42.670;23.354;2022-10-15T01:13:04;95059.56;;;12.73;100.00
20622;BME280;10470;42.670;23.354;2022-10-15T01:15:45;95052.13;;;12.45;100.00
20622;BME280;10470;42.670;23.354;2022-10-15T01:18:22;95050.31;;;12.61;100.00
20622;BME280;10470;42.670;23.354;2022-10-15T01:21:28;95053.03;;;12.70;100.00
20622;BME280;10470;42.670;23.354;2022-10-15T01:32:26;95052.56;;;12.62;100.00
20622;BME280;10470;42.670;23.354;2022-10-15T01:40:03;95045.59;;;12.61;100.00
20622;BME280;10470;42.670;23.354;2022-10-15T01:42:34;95059.13;;;12.74;100.00
20622;BME280;10470;42.670;23.354;2022-10-15T01:45:09;95049.88;;;12.72;100.00
20622;BME280;10470;42.670;23.354;2022-10-15T01:47:43;95057.91;;;12.66;100.00
20622;BME280;10470;42.670;23.354;2022-10-15T01:50:13;95053.81;;;12.61;100.00
20622;BME280;10470;42.670;23.354;2022-10-15T01:52:41;95052.88;;;12.64;100.00
20622;BME280;10470;42.670;23.354;2022-10-15T01:55:11;95053.34;;;12.72;100.00
20622;BME280;10470;42.670;23.354;2022-10-15T01:57:41;95011.56;;;12.44;100.00
20622;BME280;10470;42.670;23.354;2022-10-15T02:00:08;95052.88;;;12.55;100.00
20622;BME280;10470;42.670;23.354;2022-10-15T02:02:34;95054.38;;;12.38;100.00
20622;BME280;10470;42.670;23.354;2022-10-15T02:04:59;95056.53;;;12.61;100.00
20622;BME280;10470;42.670;23.354;2022-10-15T02:10:42;95043.91;;;12.55;100.00
20622;BME280;10470;42.670;23.354;2022-10-15T02:13:13;95053.19;;;12.76;100.00
20622;BME280;10470;42.670;23.354;2022-10-15T02:23:20;95043.75;;;12.49;100.00
20622;BME280;10470;42.670;23.354;2022-10-15T02:25:48;95047.13;;;12.53;100.00
20622;BME280;10470;42.670;23.354;2022-10-15T02:28:16;95058.81;;;12.54;100.00
20622;BME280;10470;42.670;23.354;2022-10-15T02:30:43;95044.06;;;12.60;100.00
20622;BME280;10470;42.670;23.354;2022-10-15T02:33:10;95045.25;;;12.50;100.00
20622;BME280;10470;42.670;23.354;2022-10-15T02:35:36;95056.19;;;12.50;100.00
20622;BME280;10470;42.670;23.354;2022-10-15T02:38:05;95052.13;;;12.45;100.00
20622;BME280;10470;42.670;23.354;2022-10-15T02:40:33;95046.47;;;12.40;100.00
20622;BME280;10470;42.670;23.354;2022-10-15T02:43:03;95049.81;;;12.44;100.00
20622;BME280;10470;42.670;23.354;2022-10-15T02:45:29;95044.19;;;12.38;100.00
20622;BME280;10470;42.670;23.354;2022-10-15T02:47:54;95052.41;;;12.48;100.00
20622;BME280;10470;42.670;23.354;2022-10-15T02:50:20;95053.19;;;12.48;100.00
20622;BME280;10470;42.670;23.354;2022-10-15T02:52:45;95051.81;;;12.62;100.00
20622;BME280;10470;42.670;23.354;2022-10-15T02:55:11;95054.25;;;12.51;100.00
20622;BME280;10470;42.670;23.354;2022-10-15T02:57:36;95046.50;;;12.58;100.00
20622;BME280;10470;42.670;23.354;2022-10-15T03:00:03;95044.50;;;12.50;100.00
20622;BME280;10470;42.670;23.354;2022-10-15T03:02:29;95042.72;;;12.56;100.00
20622;BME280;10470;42.670;23.354;2022-10-15T03:04:54;95045.13;;;12.63;100.00
20622;BME280;10470;42.670;23.354;2022-10-15T03:07:20;95041.31;;;12.42;100.00
20622;BME280;10470;42.670;23.354;2022-10-15T03:09:45;95047.09;;;12.35;100.00
20622;BME280;10470;42.670;23.354;2022-10-15T03:12:10;95051.16;;;12.39;100.00
20622;BME280;10470;42.670;23.354;2022-10-15T03:14:36;95040.13;;;12.43;100.00
20622;BME280;10470;42.670;23.354;2022-10-15T03:17:01;95044.00;;;12.14;100.00
20622;BME280;10470;42.670;23.354;2022-10-15T03:19:27;95040.41;;;12.36;100.00
20622;BME280;10470;42.670;23.354;2022-10-15T03:21:52;95032.31;;;12.23;100.00
20622;BME280;10470;42.670;23.354;2022-10-15T03:24:18;95042.66;;;12.37;100.00
20622;BME280;10470;42.670;23.354;2022-10-15T03:26:43;95051.47;;;12.32;100.00
20622;BME280;10470;42.670;23.354;2022-10-15T03:29:09;95048.75;;;12.32;100.00
20622;BME280;10470;42.670;23.354;2022-10-15T03:31:34;95047.84;;;12.35;100.00
20622;BME280;10470;42.670;23.354;2022-10-15T03:33:59;95047.53;;;12.33;100.00
20622;BME280;10470;42.670;23.354;2022-10-15T03:36:25;95044.34;;;12.35;100.00
20622;BME280;10470;42.670;23.354;2022-10-15T03:38:50;95036.16;;;12.44;100.00
20622;BME280;10470;42.670;23.354;2022-10-15T03:41:16;95056.81;;;12.54;100.00
20622;BME280;10470;42.670;23.354;2022-10-15T03:43:41;95045.88;;;12.54;100.00
20622;BME280;10470;42.670;23.354;2022-10-15T03:46:07;95055.91;;;12.48;100.00
20622;BME280;10470;42.670;23.354;2022-10-15T03:48:32;95043.56;;;12.34;100.00
20622;BME280;10470;42.670;23.354;2022-10-15T03:50:58;95056.63;;;12.30;100.00
20622;BME280;10470;42.670;23.354;2022-10-15T03:53:23;95057.97;;;12.26;100.00
20622;BME280;10470;42.670;23.354;2022-10-15T03:55:49;95057.97;;;12.26;100.00
20622;BME280;10470;42.670;23.354;2022-10-15T03:58:14;95048.28;;;12.34;100.00
20622;BME280;10470;42.670;23.354;2022-10-15T04:00:41;95056.16;;;12.32;100.00
20622;BME280;10470;42.670;23.354;2022-10-15T04:03:07;95060.13;;;12.40;100.00
20622;BME280;10470;42.670;23.354;2022-10-15T04:05:32;95062.09;;;12.39;100.00
20622;BME280;10470;42.670;23.354;2022-10-15T04:07:58;95059.72;;;12.51;100.00
20622;BME280;10470;42.670;23.354;2022-10-15T04:10:23;95057.38;;;12.40;100.00
20622;BME280;10470;42.670;23.354;2022-10-15T04:12:49;95049.03;;;12.25;100.00
20622;BME280;10470;42.670;23.354;2022-10-15T04:15:15;95068.28;;;12.21;100.00
20622;BME280;10470;42.670;23.354;2022-10-15T04:17:40;95063.16;;;12.33;100.00
20622;BME280;10470;42.670;23.354;2022-10-15T04:20:06;95065.91;;;12.33;100.00
20622;BME280;10470;42.670;23.354;2022-10-15T04:22:32;95049.75;;;12.16;100.00
20622;BME280;10470;42.670;23.354;2022-10-15T04:24:58;95063.63;;;12.40;100.00
20622;BME280;10470;42.670;23.354;2022-10-15T04:27:23;95056.19;;;12.41;100.00
20622;BME280;10470;42.670;23.354;2022-10-15T04:29:49;95062.25;;;12.36;100.00
20622;BME280;10470;42.670;23.354;2022-10-15T04:32:15;95067.44;;;12.43;100.00
20622;BME280;10470;42.670;23.354;2022-10-15T04:34:40;95036.28;;;12.22;100.00
20622;BME280;10470;42.670;23.354;2022-10-15T04:37:05;95066.06;;;12.38;100.00
20622;BME280;10470;42.670;23.354;2022-10-15T04:39:31;95064.81;;;12.30;100.00
20622;BME280;10470;42.670;23.354;2022-10-15T04:41:56;95068.44;;;12.18;100.00
20622;BME280;10470;42.670;23.354;2022-10-15T04:44:22;95070.72;;;12.19;100.00
20622;BME280;10470;42.670;23.354;2022-10-15T04:46:47;95076.78;;;12.23;100.00
20622;BME280;10470;42.670;23.354;2022-10-15T04:49:13;95074.66;;;12.18;100.00
20622;BME280;10470;42.670;23.354;2022-10-15T04:51:38;95081.00;;;12.15;100.00
20622;BME280;10470;42.670;23.354;2022-10-15T04:54:04;95077.09;;;12.26;100.00
20622;BME280;10470;42.670;23.354;2022-10-15T04:56:29;95081.69;;;12.38;100.00
20622;BME280;10470;42.670;23.354;2022-10-15T04:58:55;95081.06;;;12.24;100.00
20622;BME280;10470;42.670;23.354;2022-10-15T05:01:21;95085.94;;;12.30;100.00
20622;BME280;10470;42.670;23.354;2022-10-15T05:03:47;95089.75;;;12.41;100.00
20622;BME280;10470;42.670;23.354;2022-10-15T05:06:16;95077.25;;;12.31;100.00
20622;BME280;10470;42.670;23.354;2022-10-15T05:08:43;95088.19;;;12.31;100.00
20622;BME280;10470;42.670;23.354;2022-10-15T05:11:20;95090.03;;;12.34;100.00
20622;BME280;10470;42.670;23.354;2022-10-15T05:13:46;95093.22;;;12.42;100.00
20622;BME280;10470;42.670;23.354;2022-10-15T05:16:13;95099.75;;;12.35;100.00
20622;BME280;10470;42.670;23.354;2022-10-15T05:18:44;95101.25;;;12.27;100.00
20622;BME280;10470;42.670;23.354;2022-10-15T05:21:11;95099.91;;;12.41;100.00
20622;BME280;10470;42.670;23.354;2022-10-15T05:23:37;95089.13;;;12.37;100.00
20622;BME280;10470;42.670;23.354;2022-10-15T05:26:06;95093.06;;;12.36;100.00
20622;BME280;10470;42.670;23.354;2022-10-15T05:28:32;95103.25;;;12.45;100.00
20622;BME280;10470;42.670;23.354;2022-10-15T05:31:12;95099.31;;;12.46;100.00
20622;BME280;10470;42.670;23.354;2022-10-15T05:33:38;95103.25;;;12.45;100.00
20622;BME280;10470;42.670;23.354;2022-10-15T05:36:12;95104.63;;;12.50;100.00
20622;BME280;10470;42.670;23.354;2022-10-15T05:38:39;95119.09;;;12.59;100.00
20622;BME280;10470;42.670;23.354;2022-10-15T05:41:05;95109.06;;;12.65;100.00
20622;BME280;10470;42.670;23.354;2022-10-15T05:43:30;95121.19;;;12.55;100.00
20622;BME280;10470;42.670;23.354;2022-10-15T05:45:56;95118.66;;;12.61;100.00
20622;BME280;10470;42.670;23.354;2022-10-15T05:48:22;95132.28;;;12.52;100.00
20622;BME280;10470;42.670;23.354;2022-10-15T05:50:48;95131.88;;;12.72;100.00
20622;BME280;10470;42.670;23.354;2022-10-15T05:53:13;95134.03;;;12.86;100.00
20622;BME280;10470;42.670;23.354;2022-10-15T05:55:39;95129.31;;;12.77;100.00
20622;BME280;10470;42.670;23.354;2022-10-15T05:58:04;95144.06;;;12.80;100.00
20622;BME280;10470;42.670;23.354;2022-10-15T06:00:30;95134.31;;;12.79;100.00
20622;BME280;10470;42.670;23.354;2022-10-15T06:02:56;95145.13;;;12.92;100.00
20622;BME280;10470;42.670;23.354;2022-10-15T06:05:22;95138.13;;;12.90;100.00
20622;BME280;10470;42.670;23.354;2022-10-15T06:07:47;95136.19;;;13.00;100.00
20622;BME280;10470;42.670;23.354;2022-10-15T06:10:13;95132.97;;;13.02;100.00
20622;BME280;10470;42.670;23.354;2022-10-15T06:12:38;95140.91;;;13.09;100.00
20622;BME280;10470;42.670;23.354;2022-10-15T06:15:05;95137.84;;;13.07;100.00
20622;BME280;10470;42.670;23.354;2022-10-15T06:17:30;95137.38;;;12.99;100.00
20622;BME280;10470;42.670;23.354;2022-10-15T06:19:56;95139.06;;;13.06;100.00
20622;BME280;10470;42.670;23.354;2022-10-15T06:22:21;95144.53;;;13.06;100.00
20622;BME280;10470;42.670;23.354;2022-10-15T06:24:47;95154.25;;;12.98;100.00
20622;BME280;10470;42.670;23.354;2022-10-15T06:27:12;95148.03;;;13.06;100.00
20622;BME280;10470;42.670;23.354;2022-10-15T06:29:38;95158.66;;;13.04;100.00
20622;BME280;10470;42.670;23.354;2022-10-15T06:32:08;95167.53;;;13.27;100.00
20622;BME280;10470;42.670;23.354;2022-10-15T06:34:33;95163.13;;;13.29;100.00
20622;BME280;10470;42.670;23.354;2022-10-15T06:37:01;95161.59;;;13.38;100.00
20622;BME280;10470;42.670;23.354;2022-10-15T06:39:27;95171.03;;;13.27;100.00
20622;BME280;10470;42.670;23.354;2022-10-15T06:41:52;95169.69;;;13.41;100.00
20622;BME280;10470;42.670;23.354;2022-10-15T06:44:17;95175.59;;;13.30;100.00
20622;BME280;10470;42.670;23.354;2022-10-15T06:46:43;95180.88;;;13.25;100.00
20622;BME280;10470;42.670;23.354;2022-10-15T06:49:08;95173.03;;;13.36;100.00
20622;BME280;10470;42.670;23.354;2022-10-15T06:51:34;95177.13;;;13.31;100.00
20622;BME280;10470;42.670;23.354;2022-10-15T06:54:02;95159.31;;;13.27;100.00
20622;BME280;10470;42.670;23.354;2022-10-15T06:56:27;95160.09;;;13.46;100.00
20622;BME280;10470;42.670;23.354;2022-10-15T06:58:53;95173.19;;;13.42;100.00
20622;BME280;10470;42.670;23.354;2022-10-15T07:01:18;95175.16;;;13.60;100.00
20622;BME280;10470;42.670;23.354;2022-10-15T07:03:44;95180.47;;;13.63;100.00
20622;BME280;10470;42.670;23.354;2022-10-15T07:06:12;95187.13;;;13.90;100.00
20622;BME280;10470;42.670;23.354;2022-10-15T07:08:38;95181.94;;;13.92;100.00
20622;BME280;10470;42.670;23.354;2022-10-15T07:11:04;95196.22;;;14.05;100.00
20622;BME280;10470;42.670;23.354;2022-10-15T07:13:31;95191.75;;;14.26;100.00
20622;BME280;10470;42.670;23.354;2022-10-15T07:15:56;95197.22;;;14.35;100.00
20622;BME280;10470;42.670;23.354;2022-10-15T07:18:22;95188.09;;;14.29;100.00
20622;BME280;10470;42.670;23.354;2022-10-15T07:20:48;95198.03;;;14.17;100.00
20622;BME280;10470;42.670;23.354;2022-10-15T07:23:13;95197.78;;;13.88;100.00
20622;BME280;10470;42.670;23.354;2022-10-15T07:25:39;95202.66;;;13.84;100.00
20622;BME280;10470;42.670;23.354;2022-10-15T07:28:05;95207.84;;;13.91;100.00
20622;BME280;10470;42.670;23.354;2022-10-15T07:30:31;95200.69;;;13.84;100.00
20622;BME280;10470;42.670;23.354;2022-10-15T07:32:58;95202.81;;;13.89;100.00
20622;BME280;10470;42.670;23.354;2022-10-15T07:35:25;95195.84;;;13.70;100.00
20622;BME280;10470;42.670;23.354;2022-10-15T07:37:51;95200.69;;;13.75;100.00
20622;BME280;10470;42.670;23.354;2022-10-15T07:40:17;95198.25;;;13.77;100.00
20622;BME280;10470;42.670;23.354;2022-10-15T07:42:43;95201.13;;;14.01;100.00
20622;BME280;10470;42.670;23.354;2022-10-15T07:45:09;95210.22;;;14.16;100.00
20622;BME280;10470;42.670;23.354;2022-10-15T07:47:34;95199.41;;;14.22;100.00
20622;BME280;10470;42.670;23.354;2022-10-15T07:50:00;95201.09;;;14.10;100.00
20622;BME280;10470;42.670;23.354;2022-10-15T07:52:25;95213.44;;;14.06;100.00
20622;BME280;10470;42.670;23.354;2022-10-15T07:54:51;95208.69;;;14.15;100.00
20622;BME280;10470;42.670;23.354;2022-10-15T07:57:16;95200.53;;;14.49;100.00
20622;BME280;10470;42.670;23.354;2022-10-15T07:59:42;95208.56;;;14.52;100.00
20622;BME280;10470;42.670;23.354;2022-10-15T08:02:15;95207.25;;;14.81;100.00
20622;BME280;10470;42.670;23.354;2022-10-15T08:04:41;95196.06;;;14.94;100.00
20622;BME280;10470;42.670;23.354;2022-10-15T08:07:07;95209.75;;;14.79;100.00
20622;BME280;10470;42.670;23.354;2022-10-15T08:09:32;95212.19;;;15.01;100.00
20622;BME280;10470;42.670;23.354;2022-10-15T08:11:58;95209.22;;;15.14;100.00
20622;BME280;10470;42.670;23.354;2022-10-15T08:14:23;95209.41;;;15.10;100.00
20622;BME280;10470;42.670;23.354;2022-10-15T08:16:49;95210.66;;;15.33;100.00
20622;BME280;10470;42.670;23.354;2022-10-15T08:19:14;95203.72;;;15.38;100.00
20622;BME280;10470;42.670;23.354;2022-10-15T08:21:45;95200.63;;;15.45;100.00
20622;BME280;10470;42.670;23.354;2022-10-15T08:24:11;95197.13;;;15.44;100.00
20622;BME280;10470;42.670;23.354;2022-10-15T08:26:36;95193.00;;;15.49;100.00
20622;BME280;10470;42.670;23.354;2022-10-15T08:29:03;95199.97;;;15.74;100.00
20622;BME280;10470;42.670;23.354;2022-10-15T08:31:29;95199.03;;;15.77;100.00
20622;BME280;10470;42.670;23.354;2022-10-15T08:33:58;95196.56;;;15.79;100.00
20622;BME280;10470;42.670;23.354;2022-10-15T08:36:24;95200.84;;;15.95;100.00
20622;BME280;10470;42.670;23.354;2022-10-15T08:38:50;95190.84;;;15.68;100.00
20622;BME280;10470;42.670;23.354;2022-10-15T08:41:39;95189.59;;;15.30;100.00
20622;BME280;10470;42.670;23.354;2022-10-15T08:44:14;95180.13;;;15.55;100.00
20622;BME280;10470;42.670;23.354;2022-10-15T08:46:46;95184.75;;;15.88;100.00
20622;BME280;10470;42.670;23.354;2022-10-15T08:49:23;95186.72;;;16.02;100.00
20622;BME280;10470;42.670;23.354;2022-10-15T08:51:55;95188.53;;;16.20;100.00
20622;BME280;10470;42.670;23.354;2022-10-15T08:54:23;95180.59;;;16.37;100.00
20622;BME280;10470;42.670;23.354;2022-10-15T08:57:10;95185.03;;;16.05;100.00
20622;BME280;10470;42.670;23.354;2022-10-15T09:00:20;95197.91;;;16.43;100.00
20622;BME280;10470;42.670;23.354;2022-10-15T09:03:01;95196.03;;;16.20;100.00
20622;BME280;10470;42.670;23.354;2022-10-15T09:10:43;95198.41;;;16.27;100.00
20622;BME280;10470;42.670;23.354;2022-10-15T09:13:41;95205.84;;;15.82;100.00
20622;BME280;10470;42.670;23.354;2022-10-15T09:16:26;95192.59;;;15.95;100.00
20622;BME280;10470;42.670;23.354;2022-10-15T09:18:55;95197.38;;;16.24;100.00
20622;BME280;10470;42.670;23.354;2022-10-15T09:21:23;95199.94;;;15.98;100.00
20622;BME280;10470;42.670;23.354;2022-10-15T09:23:51;95196.03;;;16.20;100.00
20622;BME280;10470;42.670;23.354;2022-10-15T09:26:21;95201.84;;;16.22;100.00
20622;BME280;10470;42.670;23.354;2022-10-15T09:31:49;95187.03;;;16.19;100.00
20622;BME280;10470;42.670;23.354;2022-10-15T09:34:24;95190.06;;;16.36;100.00
20622;BME280;10470;42.670;23.354;2022-10-15T09:36:55;95115.94;;;16.12;100.00
20622;BME280;10470;42.670;23.354;2022-10-15T09:42:30;95191.59;;;16.87;100.00
20622;BME280;10470;42.670;23.354;2022-10-15T09:44:59;95201.19;;;16.92;100.00
20622;BME280;10470;42.670;23.354;2022-10-15T09:47:29;95188.09;;;16.87;100.00
20622;BME280;10470;42.670;23.354;2022-10-15T09:49:55;95185.28;;;16.51;100.00
20622;BME280;10470;42.670;23.354;2022-10-15T09:57:35;95181.91;;;16.92;100.00
20622;BME280;10470;42.670;23.354;2022-10-15T10:00:07;95176.00;;;17.19;100.00
20622;BME280;10470;42.670;23.354;2022-10-15T10:02:33;95177.63;;;16.91;100.00
20622;BME280;10470;42.670;23.354;2022-10-15T10:05:18;95114.16;;;16.44;100.00
20622;BME280;10470;42.670;23.354;2022-10-15T10:07:44;95186.56;;;17.41;100.00
20622;BME280;10470;42.670;23.354;2022-10-15T10:10:26;95195.72;;;17.53;100.00
20622;BME280;10470;42.670;23.354;2022-10-15T10:12:57;95192.38;;;16.73;100.00
20622;BME280;10470;42.670;23.354;2022-10-15T10:15:32;95189.28;;;16.50;100.00
20622;BME280;10470;42.670;23.354;2022-10-15T10:17:59;95186.78;;;16.67;100.00
20622;BME280;10470;42.670;23.354;2022-10-15T10:20:30;95184.56;;;17.62;100.00
20622;BME280;10470;42.670;23.354;2022-10-15T10:23:01;95180.06;;;17.85;100.00
20622;BME280;10470;42.670;23.354;2022-10-15T10:25:34;95189.16;;;17.92;100.00
20622;BME280;10470;42.670;23.354;2022-10-15T10:30:32;95183.19;;;17.32;100.00
20622;BME280;10470;42.670;23.354;2022-10-15T10:32:58;95178.53;;;17.64;100.00
20622;BME280;10470;42.670;23.354;2022-10-15T10:35:32;95170.78;;;17.42;100.00
20622;BME280;10470;42.670;23.354;2022-10-15T10:37:59;95173.00;;;17.17;100.00
20622;BME280;10470;42.670;23.354;2022-10-15T10:40:34;95168.41;;;16.94;100.00
20622;BME280;10470;42.670;23.354;2022-10-15T10:46:04;95169.88;;;17.30;100.00
20622;BME280;10470;42.670;23.354;2022-10-15T10:51:09;95165.88;;;18.24;96.34
20622;BME280;10470;42.670;23.354;2022-10-15T10:54:04;95172.28;;;18.73;91.30
20622;BME280;10470;42.670;23.354;2022-10-15T10:56:40;95167.56;;;19.99;88.71
20622;BME280;10470;42.670;23.354;2022-10-15T10:59:17;95171.28;;;19.74;83.17
20622;BME280;10470;42.670;23.354;2022-10-15T11:01:44;95156.50;;;19.82;77.94
20622;BME280;10470;42.670;23.354;2022-10-15T11:04:33;95176.44;;;20.54;77.29
20622;BME280;10470;42.670;23.354;2022-10-15T11:07:07;95164.25;;;19.73;75.98
20622;BME280;10470;42.670;23.354;2022-10-15T11:09:51;95160.28;;;20.07;84.08
20622;BME280;10470;42.670;23.354;2022-10-15T11:29:13;95149.09;;;21.31;77.80
20622;BME280;10470;42.670;23.354;2022-10-15T11:34:57;95149.22;;;20.86;76.15
20622;BME280;10470;42.670;23.354;2022-10-15T11:37:54;95119.00;;;19.81;80.82
20622;BME280;10470;42.670;23.354;2022-10-15T11:57:08;95149.69;;;19.89;77.11
20622;BME280;10470;42.670;23.354;2022-10-15T11:59:50;95156.28;;;20.08;77.40
20622;BME280;10470;42.670;23.354;2022-10-15T12:02:29;95144.91;;;19.84;78.55
20622;BME280;10470;42.670;23.354;2022-10-15T12:04:59;95154.75;;;19.91;80.28
20622;BME280;10470;42.670;23.354;2022-10-15T12:15:36;95168.34;;;18.86;93.45
20622;BME280;10470;42.670;23.354;2022-10-15T12:18:15;95163.72;;;19.09;93.92
20622;BME280;10470;42.670;23.354;2022-10-15T12:20:43;95160.38;;;18.93;93.27
20622;BME280;10470;42.670;23.354;2022-10-15T12:23:45;95162.28;;;19.25;91.19
20622;BME280;10470;42.670;23.354;2022-10-15T12:26:30;95154.31;;;18.84;93.06
20622;BME280;10470;42.670;23.354;2022-10-15T12:28:58;95163.72;;;18.71;95.21
20622;BME280;10470;42.670;23.354;2022-10-15T12:31:42;95124.22;;;18.54;94.43
20622;BME280;10470;42.670;23.354;2022-10-15T12:34:31;95159.28;;;18.80;94.69
20622;BME280;10470;42.670;23.354;2022-10-15T12:37:14;95149.69;;;19.12;93.75
20622;BME280;10470;42.670;23.354;2022-10-15T12:39:41;95143.78;;;19.48;90.66
20622;BME280;10470;42.670;23.354;2022-10-15T12:42:32;95154.97;;;19.16;90.34
20622;BME280;10470;42.670;23.354;2022-10-15T12:45:01;95147.69;;;19.18;90.82
20622;BME280;10470;42.670;23.354;2022-10-15T12:50:20;95148.59;;;19.58;93.50
20622;BME280;10470;42.670;23.354;2022-10-15T12:55:23;95151.78;;;20.73;84.19
20622;BME280;10470;42.670;23.354;2022-10-15T12:57:53;95152.53;;;20.45;84.84
20622;BME280;10470;42.670;23.354;2022-10-15T13:00:27;95142.44;;;20.48;84.64
20622;BME280;10470;42.670;23.354;2022-10-15T13:02:54;95144.97;;;20.40;82.31
20622;BME280;10470;42.670;23.354;2022-10-15T13:05:30;95141.97;;;20.61;85.62
20622;BME280;10470;42.670;23.354;2022-10-15T13:07:58;95142.06;;;21.83;77.58
20622;BME280;10470;42.670;23.354;2022-10-15T13:10:33;95156.88;;;21.97;72.37
20622;BME280;10470;42.670;23.354;2022-10-15T13:13:02;95159.72;;;21.22;75.39
20622;BME280;10470;42.670;23.354;2022-10-15T13:15:30;95157.22;;;21.12;77.02
20622;BME280;10470;42.670;23.354;2022-10-15T13:18:07;95148.91;;;21.82;72.62
20622;BME280;10470;42.670;23.354;2022-10-15T13:20:47;95144.13;;;22.13;71.71
20622;BME280;10470;42.670;23.354;2022-10-15T13:25:46;95145.06;;;22.62;69.78
20622;BME280;10470;42.670;23.354;2022-10-15T13:28:31;95148.34;;;22.61;65.71
20622;BME280;10470;42.670;23.354;2022-10-15T13:30:59;95142.19;;;21.60;71.87
20622;BME280;10470;42.670;23.354;2022-10-15T13:33:27;95134.91;;;20.71;73.46
20622;BME280;10470;42.670;23.354;2022-10-15T13:35:53;95137.34;;;19.68;82.57
20622;BME280;10470;42.670;23.354;2022-10-15T13:38:25;95140.38;;;19.75;84.07
20622;BME280;10470;42.670;23.354;2022-10-15T13:40:52;95134.84;;;19.86;85.60
20622;BME280;10470;42.670;23.354;2022-10-15T13:43:23;95145.75;;;21.97;74.97
20622;BME280;10470;42.670;23.354;2022-10-15T13:45:53;95146.19;;;22.48;68.40
20622;BME280;10470;42.670;23.354;2022-10-15T13:48:22;95139.88;;;20.95;73.61
20622;BME280;10470;42.670;23.354;2022-10-15T13:51:14;95149.81;;;21.49;72.10
20622;BME280;10470;42.670;23.354;2022-10-15T13:53:40;95140.59;;;21.76;71.67
20622;BME280;10470;42.670;23.354;2022-10-15T13:56:28;95144.19;;;22.73;69.89
20622;BME280;10470;42.670;23.354;2022-10-15T13:58:59;95144.81;;;22.30;64.53
20622;BME280;10470;42.670;23.354;2022-10-15T14:01:26;95138.66;;;20.23;70.34
20622;BME280;10470;42.670;23.354;2022-10-15T14:03:57;95135.00;;;19.43;79.67
20622;BME280;10470;42.670;23.354;2022-10-15T14:06:32;95147.78;;;19.41;83.47
20622;BME280;10470;42.670;23.354;2022-10-15T14:08:59;95145.47;;;19.23;85.79
20622;BME280;10470;42.670;23.354;2022-10-15T14:11:27;95153.13;;;21.42;73.32
20622;BME280;10470;42.670;23.354;2022-10-15T14:13:55;95151.19;;;22.80;63.60
20622;BME280;10470;42.670;23.354;2022-10-15T14:16:28;95144.66;;;22.11;62.73
20622;BME280;10470;42.670;23.354;2022-10-15T14:19:08;95146.53;;;22.39;62.19
20622;BME280;10470;42.670;23.354;2022-10-15T14:21:35;95136.88;;;19.97;70.61
20622;BME280;10470;42.670;23.354;2022-10-15T14:24:10;95141.19;;;20.10;74.86
20622;BME280;10470;42.670;23.354;2022-10-15T14:26:36;95134.72;;;19.36;77.14
20622;BME280;10470;42.670;23.354;2022-10-15T14:29:04;95128.06;;;19.76;76.57
20622;BME280;10470;42.670;23.354;2022-10-15T14:31:37;95126.81;;;19.77;78.41
20622;BME280;10470;42.670;23.354;2022-10-15T14:34:03;95123.56;;;19.96;78.50
20622;BME280;10470;42.670;23.354;2022-10-15T14:36:30;95128.19;;;19.45;82.26
20622;BME280;10470;42.670;23.354;2022-10-15T14:39:21;95129.91;;;19.31;84.16